Time;durP1;ratioP1;P1;durP2;ratioP2;P2;SDS_P1;SDS_P2;PMS_P1;PMS_P2;Temp;Humidity;BMP_temperature;BMP_pressure;BME280_temperature;BME280_humidity;BME280_pressure;Samples;Min_cycle;Max_cycle;Signal;HPM_P1;HPM_P2
2022/08/31 00:04:01;;;;;;;4.65;1.83;;;;;;;14.03;100.00;102350.63;5079740;28;20051;-69
2022/08/31 00:06:32;;;;;;;2.72;1.50;;;;;;;14.01;100.00;102357.91;5096350;28;20032;-68
2022/08/31 00:08:59;;;;;;;8.00;1.60;;;;;;;14.02;100.00;102343.56;5094626;28;20028;-68
2022/08/31 00:11:29;;;;;;;2.40;1.63;;;;;;;14.02;100.00;102359.63;5095827;28;20027;-68
2022/08/31 00:13:57;;;;;;;3.97;1.80;;;;;;;14.04;100.00;102359.50;5095304;28;20036;-67
2022/08/31 00:16:23;;;;;;;5.80;1.55;;;;;;;14.03;100.00;102350.63;5095335;28;20028;-68
2022/08/31 00:18:51;;;;;;;4.43;1.67;;;;;;;14.05;100.00;102358.53;5095168;28;20123;-70
2022/08/31 00:21:18;;;;;;;4.50;1.65;;;;;;;14.01;100.00;102347.22;5095358;28;20364;-70
2022/08/31 00:23:43;;;;;;;4.65;1.50;;;;;;;14.00;100.00;102353.56;5095131;28;20032;-69
2022/08/31 00:26:09;;;;;;;1.88;1.30;;;;;;;13.97;100.00;102353.78;5076850;28;20047;-69
2022/08/31 00:28:34;;;;;;;8.20;1.50;;;;;;;13.96;100.00;102356.59;5095571;28;20032;-69
2022/08/31 00:30:59;;;;;;;4.13;1.40;;;;;;;13.92;100.00;102364.03;5095268;28;20028;-69
2022/08/31 00:33:25;;;;;;;5.70;1.63;;;;;;;13.90;100.00;102356.13;5077204;28;20116;-69
2022/08/31 00:35:50;;;;;;;4.70;1.67;;;;;;;13.90;100.00;102352.59;5076719;28;20110;-68
2022/08/31 00:38:15;;;;;;;3.88;1.60;;;;;;;13.91;100.00;102354.28;5095021;28;20055;-69
2022/08/31 00:40:43;;;;;;;3.35;1.60;;;;;;;13.89;100.00;102361.59;5094743;28;20020;-68
2022/08/31 00:43:09;;;;;;;3.95;2.35;;;;;;;13.87;100.00;102360.88;5094642;28;20036;-69
2022/08/31 00:45:34;;;;;;;3.40;1.60;;;;;;;13.83;100.00;102356.75;5076444;28;20085;-68
2022/08/31 00:47:59;;;;;;;8.02;1.40;;;;;;;13.80;100.00;102355.16;5094934;28;20035;-68
2022/08/31 00:50:26;;;;;;;7.85;1.77;;;;;;;13.78;100.00;102353.56;5094924;28;20032;-69
2022/08/31 00:52:56;;;;;;;6.18;1.70;;;;;;;13.76;100.00;102351.03;5094531;28;20032;-68
2022/08/31 00:55:30;;;;;;;2.45;1.45;;;;;;;13.75;100.00;102354.69;5094802;28;20031;-68
2022/08/31 00:57:59;;;;;;;3.42;1.80;;;;;;;13.75;100.00;102360.03;5094628;28;20040;-68
2022/08/31 01:00:27;;;;;;;3.28;1.27;;;;;;;13.73;100.00;102356.63;5094262;28;20024;-68
2022/08/31 01:02:54;;;;;;;5.22;1.52;;;;;;;13.70;100.00;102365.75;5094788;28;20055;-68
2022/08/31 01:05:20;;;;;;;1.40;1.30;;;;;;;13.67;100.00;102363.31;5094214;28;20028;-68
2022/08/31 01:07:47;;;;;;;1.90;1.70;;;;;;;13.67;100.00;102362.47;5094210;28;20149;-68
2022/08/31 01:10:15;;;;;;;3.33;1.50;;;;;;;13.63;100.00;102352.97;5094101;28;20464;-68
2022/08/31 01:12:43;;;;;;;6.38;1.67;;;;;;;13.60;100.00;102359.44;5076008;28;20046;-68
2022/08/31 01:15:10;;;;;;;1.60;1.27;;;;;;;13.55;100.00;102357.13;5093975;28;20032;-69
2022/08/31 01:17:36;;;;;;;4.88;1.50;;;;;;;13.52;100.00;102354.69;5094094;28;20032;-68
2022/08/31 01:20:26;;;;;;;3.15;1.50;;;;;;;13.49;100.00;102354.91;5093135;28;20167;-68
2022/08/31 01:23:20;;;;;;;3.83;1.80;;;;;;;13.50;100.00;102355.78;5093926;28;20464;-68
2022/08/31 01:25:47;;;;;;;2.65;1.50;;;;;;;13.49;100.00;102354.06;5093937;28;20055;-68
2022/08/31 01:28:13;;;;;;;4.32;1.85;;;;;;;13.49;100.00;102344.22;5075600;28;20115;-68
2022/08/31 01:30:40;;;;;;;2.60;1.35;;;;;;;13.47;100.00;102342.66;5093911;28;20115;-68
2022/08/31 01:33:05;;;;;;;3.45;1.30;;;;;;;13.47;100.00;102353.34;5093789;28;20032;-68
2022/08/31 01:35:31;;;;;;;6.05;1.58;;;;;;;13.51;100.00;102346.78;5076410;28;20266;-68
2022/08/31 01:37:57;;;;;;;5.22;1.40;;;;;;;13.49;100.00;102349.56;5075586;28;20024;-68
2022/08/31 01:40:35;;;;;;;1.83;1.40;;;;;;;13.47;100.00;102350.69;5075457;28;20028;-68
2022/08/31 01:43:01;;;;;;;4.43;1.60;;;;;;;13.42;100.00;102352.84;5093614;28;20047;-68
2022/08/31 01:45:27;;;;;;;1.50;1.33;;;;;;;13.40;100.00;102348.50;5075278;28;20142;-68
2022/08/31 01:47:52;;;;;;;2.05;1.30;;;;;;;13.38;100.00;102358.44;5093568;28;20028;-67
2022/08/31 01:50:18;;;;;;;5.60;1.48;;;;;;;13.35;100.00;102358.69;5093423;28;20043;-68
2022/08/31 01:52:43;;;;;;;2.97;1.35;;;;;;;13.34;100.00;102359.66;5093416;28;20024;-68
2022/08/31 01:55:09;;;;;;;1.55;1.30;;;;;;;13.33;100.00;102357.06;5093478;28;20024;-69
2022/08/31 01:57:34;;;;;;;6.30;1.33;;;;;;;13.33;100.00;102357.06;5093446;28;20028;-69
2022/08/31 02:00:07;;;;;;;1.30;1.20;;;;;;;13.36;100.00;102356.84;5093217;28;20486;-69
2022/08/31 02:02:33;;;;;;;1.42;1.20;;;;;;;13.38;100.00;102360.28;5093352;28;20133;-70
2022/08/31 02:04:58;;;;;;;3.88;1.42;;;;;;;13.40;100.00;102359.19;5093310;28;20028;-69
2022/08/31 02:07:24;;;;;;;2.40;1.40;;;;;;;13.44;100.00;102367.81;5093337;28;20093;-69
2022/08/31 02:09:50;;;;;;;2.90;1.50;;;;;;;13.46;100.00;102362.34;5075196;28;20056;-69
2022/08/31 02:12:15;;;;;;;4.00;1.40;;;;;;;13.57;100.00;102357.00;5093239;28;20028;-70
2022/08/31 02:14:40;;;;;;;2.97;1.50;;;;;;;13.52;100.00;102354.69;5075208;28;20405;-69
2022/08/31 02:17:07;;;;;;;5.63;1.27;;;;;;;13.49;100.00;102359.44;5093560;28;20448;-69
2022/08/31 02:19:33;;;;;;;3.90;1.42;;;;;;;13.47;100.00;102362.22;5093720;28;20059;-69
2022/08/31 02:21:58;;;;;;;1.80;1.20;;;;;;;13.44;100.00;102364.31;5093657;28;20036;-69
2022/08/31 02:24:23;;;;;;;4.80;1.40;;;;;;;13.37;100.00;102351.38;5093324;28;20036;-69
2022/08/31 02:26:49;;;;;;;4.95;1.35;;;;;;;13.36;100.00;102362.19;5093112;28;20024;-69
2022/08/31 02:29:16;;;;;;;6.78;1.88;;;;;;;13.34;100.00;102362.31;5093208;28;20057;-69
2022/08/31 02:31:42;;;;;;;4.30;1.15;;;;;;;13.38;100.00;102362.94;5093681;28;20028;-69
2022/08/31 02:34:08;;;;;;;3.05;1.52;;;;;;;13.34;100.00;102364.16;5078938;28;20449;-68
2022/08/31 02:36:34;;;;;;;2.60;1.25;;;;;;;13.31;100.00;102359.03;5097108;28;20082;-69
2022/08/31 02:38:59;;;;;;;1.83;1.38;;;;;;;13.32;100.00;102350.88;5079068;28;20031;-68
2022/08/31 02:41:25;;;;;;;1.73;1.38;;;;;;;13.33;100.00;102357.94;5096891;28;20028;-69
2022/08/31 02:43:50;;;;;;;2.22;1.40;;;;;;;13.35;100.00;102352.50;5097048;28;20440;-68
2022/08/31 02:46:15;;;;;;;4.13;1.38;;;;;;;13.30;100.00;102351.97;5096976;28;20435;-69
2022/08/31 02:48:41;;;;;;;3.45;1.50;;;;;;;13.27;100.00;102353.06;5078439;28;20028;-68
2022/08/31 02:51:08;;;;;;;3.20;1.58;;;;;;;13.25;100.00;102354.16;5097740;28;20074;-69
2022/08/31 02:53:35;;;;;;;2.50;1.20;;;;;;;13.33;100.00;102357.06;5078603;28;20077;-69
2022/08/31 02:56:01;;;;;;;1.92;1.50;;;;;;;13.34;100.00;102356.97;5097006;28;20361;-69
2022/08/31 02:58:27;;;;;;;1.58;1.30;;;;;;;13.33;100.00;102360.63;5096653;28;20115;-69
2022/08/31 03:00:52;;;;;;;2.35;1.30;;;;;;;13.34;100.00;102356.97;5096899;28;20119;-69
2022/08/31 03:03:18;;;;;;;5.72;1.48;;;;;;;13.31;100.00;102357.19;5096658;28;20455;-69
2022/08/31 03:05:44;;;;;;;2.13;1.58;;;;;;;13.32;100.00;102353.56;5096523;28;20164;-69
2022/08/31 03:08:09;;;;;;;1.50;1.20;;;;;;;13.29;100.00;102359.13;5096606;28;20111;-69
2022/08/31 03:10:36;;;;;;;3.42;1.35;;;;;;;13.26;100.00;102356.72;5096513;28;20036;-69
2022/08/31 03:13:02;;;;;;;1.90;1.48;;;;;;;13.28;100.00;102359.25;5096997;28;20333;-69
2022/08/31 03:15:28;;;;;;;2.45;1.23;;;;;;;13.27;100.00;102366.44;5097000;28;20039;-69
2022/08/31 03:17:54;;;;;;;1.60;1.27;;;;;;;13.27;100.00;102366.44;5096195;28;20051;-68
2022/08/31 03:20:22;;;;;;;3.45;1.40;;;;;;;13.26;100.00;102364.72;5096080;28;20037;-68
2022/08/31 03:22:47;;;;;;;1.92;1.35;;;;;;;13.24;100.00;102363.97;5095803;28;20043;-69
2022/08/31 03:25:13;;;;;;;1.50;1.10;;;;;;;13.20;100.00;102368.72;5096006;28;20040;-69
2022/08/31 03:27:38;;;;;;;4.10;1.30;;;;;;;13.18;100.00;102364.47;5096634;28;20039;-68
2022/08/31 03:30:08;;;;;;;3.58;1.25;;;;;;;13.16;100.00;102369.09;5096128;28;20383;-69
2022/08/31 03:32:34;;;;;;;1.52;1.33;;;;;;;13.11;100.00;102366.78;5095695;28;20024;-69
2022/08/31 03:35:00;;;;;;;1.85;1.33;;;;;;;13.07;100.00;102375.13;5077831;28;20027;-69
2022/08/31 03:37:26;;;;;;;3.13;1.45;;;;;;;13.01;100.00;102371.97;5095967;28;20028;-69
2022/08/31 03:39:51;;;;;;;3.65;1.50;;;;;;;12.95;100.00;102372.44;5077917;28;20032;-68
2022/08/31 03:42:18;;;;;;;2.33;1.33;;;;;;;12.94;100.00;102373.38;5096406;28;20119;-68
2022/08/31 03:44:44;;;;;;;1.52;1.38;;;;;;;12.96;100.00;102376.81;5095692;28;20473;-68
2022/08/31 03:47:10;;;;;;;3.47;1.40;;;;;;;12.96;100.00;102378.66;5096043;28;20028;-68
2022/08/31 03:49:35;;;;;;;2.13;1.48;;;;;;;12.97;100.00;102378.53;5095776;28;20165;-69
2022/08/31 03:52:01;;;;;;;1.70;1.27;;;;;;;12.99;100.00;102373.91;5095817;28;20392;-69
2022/08/31 03:54:27;;;;;;;4.30;1.25;;;;;;;13.00;100.00;102372.94;5077541;28;20064;-70
2022/08/31 03:56:52;;;;;;;2.10;1.38;;;;;;;12.97;100.00;102383.00;5095564;28;20031;-68
2022/08/31 03:59:17;;;;;;;1.55;1.20;;;;;;;12.91;100.00;102378.13;5095649;28;20047;-69
2022/08/31 04:01:43;;;;;;;2.92;1.35;;;;;;;12.87;100.00;102386.38;5095400;28;20043;-68
2022/08/31 04:04:11;;;;;;;4.00;1.50;;;;;;;12.85;100.00;102390.13;5095448;28;20031;-69
2022/08/31 04:06:39;;;;;;;3.50;1.58;;;;;;;12.82;100.00;102393.03;5095423;28;20051;-68
2022/08/31 04:09:04;;;;;;;1.63;1.45;;;;;;;12.79;100.00;102395.94;5077214;28;20383;-67
2022/08/31 04:11:29;;;;;;;1.77;1.58;;;;;;;12.79;100.00;102390.59;5095783;28;20054;-69
2022/08/31 04:13:55;;;;;;;1.60;1.27;;;;;;;12.78;100.00;102389.75;5095304;28;20036;-69
2022/08/31 04:16:22;;;;;;;2.00;1.45;;;;;;;12.74;100.00;102390.09;5095630;28;20081;-69
2022/08/31 04:18:47;;;;;;;2.03;1.42;;;;;;;12.71;100.00;102391.19;5095495;28;20055;-70
2022/08/31 04:21:17;;;;;;;2.45;1.48;;;;;;;12.66;100.00;102396.88;5095105;28;20028;-69
2022/08/31 04:23:42;;;;;;;3.30;1.30;;;;;;;12.62;100.00;102392.72;5095328;28;20020;-69
2022/08/31 04:26:29;;;;;;;1.33;1.23;;;;;;;12.60;100.00;102393.78;5095215;28;20031;-69
2022/08/31 04:28:55;;;;;;;4.85;1.42;;;;;;;12.53;100.00;102396.91;5094921;28;20463;-69
2022/08/31 04:31:22;;;;;;;1.70;1.33;;;;;;;12.49;100.00;102399.94;5094221;28;20036;-68
2022/08/31 04:33:48;;;;;;;1.80;1.50;;;;;;;12.47;100.00;102396.53;5094550;28;20047;-69
2022/08/31 04:36:17;;;;;;;8.05;1.50;;;;;;;12.45;100.00;102396.66;5095331;28;20082;-69
2022/08/31 04:38:44;;;;;;;2.55;1.50;;;;;;;12.43;100.00;102403.06;5094639;28;20032;-69
2022/08/31 04:41:11;;;;;;;1.40;1.30;;;;;;;12.39;100.00;102397.09;5094450;28;20387;-69
2022/08/31 04:43:38;;;;;;;1.85;1.35;;;;;;;12.39;100.00;102389.09;5095214;28;20452;-69
2022/08/31 04:46:06;;;;;;;5.07;1.50;;;;;;;12.38;100.00;102398.06;5094320;28;20090;-68
2022/08/31 04:48:32;;;;;;;2.78;1.20;;;;;;;12.37;100.00;102395.50;5095201;28;20115;-68
2022/08/31 04:51:10;;;;;;;3.70;2.15;;;;;;;12.40;100.00;102392.59;5076639;28;20044;-69
2022/08/31 04:53:36;;;;;;;2.75;1.50;;;;;;;12.45;100.00;102390.44;5094719;28;20093;-69
2022/08/31 04:56:08;;;;;;;1.38;1.27;;;;;;;12.45;100.00;102401.13;5094134;28;20040;-69
2022/08/31 04:58:34;;;;;;;2.13;1.25;;;;;;;12.44;100.00;102397.59;5094293;28;20030;-70
2022/08/31 05:00:59;;;;;;;3.03;1.13;;;;;;;12.51;100.00;102396.19;5076464;28;20368;-69
2022/08/31 05:03:24;;;;;;;1.33;1.10;;;;;;;12.56;100.00;102398.50;5094254;28;20082;-69
2022/08/31 05:05:52;;;;;;;6.85;1.20;;;;;;;12.56;100.00;102395.84;5094049;28;20033;-69
2022/08/31 05:08:18;;;;;;;3.30;1.17;;;;;;;12.55;100.00;102402.13;5094425;28;20121;-69
2022/08/31 05:10:44;;;;;;;3.63;1.17;;;;;;;12.54;100.00;102403.13;5093979;28;20059;-69
2022/08/31 05:13:09;;;;;;;4.28;2.00;;;;;;;12.52;100.00;102397.03;5094430;28;20427;-69
2022/08/31 05:15:41;;;;;;;3.67;3.15;;;;;;;12.51;100.00;102406.03;5094052;28;20115;-69
2022/08/31 05:18:06;;;;;;;3.28;1.60;;;;;;;12.51;100.00;102403.34;5093919;28;20082;-69
2022/08/31 05:20:31;;;;;;;3.50;1.00;;;;;;;12.58;100.00;102409.06;5075353;28;20081;-69
2022/08/31 05:22:56;;;;;;;1.20;1.10;;;;;;;12.61;100.00;102403.50;5093446;28;20088;-69
2022/08/31 05:25:22;;;;;;;1.42;1.10;;;;;;;12.64;100.00;102403.28;5075725;28;20036;-69
2022/08/31 05:27:47;;;;;;;3.38;1.10;;;;;;;12.68;100.00;102410.09;5093399;28;20040;-69
2022/08/31 05:30:13;;;;;;;0.90;0.90;;;;;;;12.67;100.00;102411.06;5093705;28;20039;-69
2022/08/31 05:32:38;;;;;;;2.75;1.08;;;;;;;12.66;100.00;102412.88;5094291;28;20032;-69
2022/08/31 05:35:04;;;;;;;1.73;1.10;;;;;;;12.67;100.00;102413.72;5075776;28;20035;-69
2022/08/31 05:37:29;;;;;;;2.20;1.23;;;;;;;12.68;100.00;102416.28;5094098;28;20406;-69
2022/08/31 05:39:55;;;;;;;1.65;1.10;;;;;;;12.72;100.00;102419.59;5093814;28;20028;-69
2022/08/31 05:42:20;;;;;;;1.45;1.00;;;;;;;12.72;100.00;102406.25;5093376;28;20529;-69
2022/08/31 05:44:45;;;;;;;1.38;1.02;;;;;;;12.79;100.00;102411.97;5093029;28;20024;-69
2022/08/31 05:47:11;;;;;;;5.32;1.20;;;;;;;12.87;100.00;102415.75;5093722;28;20107;-69
2022/08/31 05:49:38;;;;;;;0.95;0.90;;;;;;;12.93;100.00;102418.91;5093323;28;20030;-69
2022/08/31 05:52:04;;;;;;;2.55;0.90;;;;;;;12.96;100.00;102419.56;5075638;28;20035;-69
2022/08/31 05:54:33;;;;;;;0.80;0.80;;;;;;;12.98;100.00;102417.63;5093694;28;20040;-69
2022/08/31 05:56:58;;;;;;;4.00;2.20;;;;;;;13.04;100.00;102425.16;5093334;28;20036;-69
2022/08/31 05:59:24;;;;;;;4.53;1.90;;;;;;;13.10;99.53;102415.00;5093416;28;20030;-69
2022/08/31 06:01:49;;;;;;;2.65;1.50;;;;;;;13.16;99.00;102414.50;5093157;28;20062;-69
2022/08/31 06:04:14;;;;;;;0.98;0.90;;;;;;;13.20;98.94;102418.66;5093290;28;20066;-69
2022/08/31 06:06:40;;;;;;;8.07;1.00;;;;;;;13.22;98.23;102424.72;5093854;28;20032;-69
2022/08/31 06:09:07;;;;;;;2.78;1.05;;;;;;;13.26;98.08;102412.84;5093645;28;20071;-69
2022/08/31 06:11:33;;;;;;;2.20;1.20;;;;;;;13.32;97.34;102424.88;5093582;28;20059;-69
2022/08/31 06:14:01;;;;;;;2.10;1.30;;;;;;;13.37;97.91;102422.72;5093162;28;20024;-69
2022/08/31 06:16:28;;;;;;;1.50;1.10;;;;;;;13.45;96.77;102417.66;5092907;28;20492;-69
2022/08/31 06:18:54;;;;;;;5.68;2.08;;;;;;;13.55;95.54;102428.47;5093235;28;20051;-69
2022/08/31 06:21:29;;;;;;;2.92;1.38;;;;;;;13.62;95.39;102424.34;5093169;28;20032;-69
2022/08/31 06:23:56;;;;;;;2.65;1.23;;;;;;;13.70;94.48;102424.59;5093200;28;20036;-69
2022/08/31 06:26:23;;;;;;;4.30;1.00;;;;;;;13.79;93.81;102427.50;5093167;28;20032;-69
2022/08/31 06:28:51;;;;;;;1.50;1.10;;;;;;;13.87;93.68;102433.13;5093070;28;20166;-69
2022/08/31 06:31:22;;;;;;;4.10;1.13;;;;;;;13.91;93.86;102426.53;5093195;28;20024;-69
2022/08/31 06:33:49;;;;;;;3.05;1.20;;;;;;;13.99;94.43;102431.25;5075409;28;20396;-70
2022/08/31 06:36:17;;;;;;;1.08;0.90;;;;;;;14.05;92.51;102428.97;5093386;28;20032;-69
2022/08/31 06:38:42;;;;;;;3.15;1.10;;;;;;;14.15;92.81;102430.88;5093043;28;20032;-69
2022/08/31 06:41:16;;;;;;;3.50;1.10;;;;;;;14.24;92.82;102435.50;5092902;28;20036;-69
2022/08/31 06:43:43;;;;;;;1.80;0.98;;;;;;;14.33;90.78;102434.78;5093035;28;20539;-69
2022/08/31 06:46:09;;;;;;;1.90;1.00;;;;;;;14.40;92.19;102433.28;5092972;28;20059;-69
2022/08/31 06:48:35;;;;;;;2.55;1.10;;;;;;;14.45;92.33;102440.94;5092875;28;20436;-69
2022/08/31 06:51:01;;;;;;;1.25;1.05;;;;;;;14.52;90.70;102433.25;5092940;28;20028;-69
2022/08/31 06:53:27;;;;;;;1.92;1.20;;;;;;;14.59;90.64;102439.81;5092972;28;20046;-69
2022/08/31 06:55:53;;;;;;;1.20;0.82;;;;;;;14.68;90.05;102432.88;5074550;28;20103;-69
2022/08/31 06:58:18;;;;;;;1.15;1.05;;;;;;;14.76;90.31;102444.66;5092713;28;20476;-68
2022/08/31 07:00:44;;;;;;;3.97;0.95;;;;;;;14.83;90.29;102439.63;5092552;28;20472;-69
2022/08/31 07:03:22;;;;;;;4.68;1.10;;;;;;;14.87;90.43;102437.53;5074773;28;20036;-69
2022/08/31 07:05:51;;;;;;;5.80;0.93;;;;;;;14.93;90.65;102445.09;5093431;28;20162;-69
2022/08/31 07:08:20;;;;;;;2.35;0.90;;;;;;;15.01;89.36;102447.13;5092810;28;20035;-69
2022/08/31 07:10:46;;;;;;;3.63;0.90;;;;;;;15.11;89.41;102453.41;5092745;28;20051;-69
2022/08/31 07:13:12;;;;;;;2.45;1.10;;;;;;;15.18;88.94;102449.19;5092658;28;20388;-69
2022/08/31 07:15:37;;;;;;;1.60;0.75;;;;;;;15.27;87.71;102452.94;5092779;28;20028;-69
2022/08/31 07:18:03;;;;;;;1.42;0.90;;;;;;;15.33;87.50;102449.72;5092970;28;20452;-69
2022/08/31 07:20:28;;;;;;;3.95;0.90;;;;;;;15.43;86.64;102463.22;5096620;28;20032;-70
2022/08/31 07:22:55;;;;;;;2.58;0.80;;;;;;;15.51;88.25;102455.38;5061679;28;20131;-69
2022/08/31 07:25:21;;;;;;;5.70;1.00;;;;;;;15.59;87.33;102465.44;5096415;28;20065;-69
2022/08/31 07:27:49;;;;;;;0.80;0.77;;;;;;;15.68;86.96;102461.94;5095976;28;20388;-69
2022/08/31 07:30:15;;;;;;;1.63;0.90;;;;;;;15.81;82.97;102467.97;5096106;28;20036;-69
2022/08/31 07:32:40;;;;;;;3.67;0.80;;;;;;;15.92;83.88;102467.03;5096064;28;20039;-69
2022/08/31 07:35:07;;;;;;;2.45;0.80;;;;;;;15.99;82.69;102456.63;5096057;28;20034;-68
2022/08/31 07:43:03;;;;;;;2.72;1.05;;;;;;;16.31;77.78;102463.63;5096457;28;20387;-69
2022/08/31 07:45:29;;;;;;;2.53;0.85;;;;;;;16.39;77.57;102458.41;5095930;28;20082;-69
2022/08/31 07:47:58;;;;;;;6.85;1.02;;;;;;;16.50;77.03;102455.59;5095844;28;20119;-70
2022/08/31 07:50:26;;;;;;;1.52;0.77;;;;;;;16.64;78.75;102448.13;5096185;28;20036;-69
2022/08/31 07:52:53;;;;;;;1.17;0.82;;;;;;;16.79;76.22;102457.47;5096275;28;20036;-69
2022/08/31 07:55:20;;;;;;;2.05;0.70;;;;;;;16.96;76.62;102447.91;5095637;28;20074;-69
2022/08/31 07:57:46;;;;;;;1.45;0.95;;;;;;;17.10;76.26;102458.19;5095774;28;20032;-69
2022/08/31 08:00:17;;;;;;;0.85;0.80;;;;;;;17.21;74.66;102448.28;5077740;28;20104;-69
2022/08/31 08:02:45;;;;;;;1.02;0.68;;;;;;;17.32;73.44;102452.69;5096157;28;20024;-70
2022/08/31 08:05:19;;;;;;;4.82;1.10;;;;;;;17.65;71.01;102456.69;5095672;28;20024;-69
2022/08/31 08:07:47;;;;;;;0.70;0.65;;;;;;;18.19;69.76;102456.91;5095602;28;20482;-69
2022/08/31 08:10:14;;;;;;;2.40;1.00;;;;;;;18.76;65.44;102456.66;5095848;28;20028;-69
2022/08/31 08:12:45;;;;;;;3.10;0.80;;;;;;;19.23;63.71;102460.13;5095061;28;20028;-69
2022/08/31 08:15:13;;;;;;;2.45;0.80;;;;;;;19.70;59.43;102455.22;5095530;28;20024;-70
2022/08/31 08:17:39;;;;;;;4.97;0.90;;;;;;;20.32;58.42;102456.88;5095359;28;20152;-69
2022/08/31 08:20:05;;;;;;;0.90;0.85;;;;;;;20.73;55.84;102453.41;5096213;28;20048;-69
2022/08/31 08:22:31;;;;;;;7.80;0.90;;;;;;;20.75;52.65;102467.63;5094906;28;20127;-70
2022/08/31 08:24:59;;;;;;;1.60;0.80;;;;;;;20.70;51.91;102468.13;5094829;28;20055;-70
2022/08/31 08:27:25;;;;;;;4.70;0.90;;;;;;;20.96;53.11;102465.28;5095118;28;20020;-69
2022/08/31 08:29:51;;;;;;;6.22;0.80;;;;;;;20.99;52.90;102469.50;5075854;28;20475;-70
2022/08/31 08:32:17;;;;;;;1.08;0.80;;;;;;;20.92;51.74;102471.19;5095337;28;20123;-68
2022/08/31 08:34:43;;;;;;;3.65;0.85;;;;;;;20.84;53.25;102469.34;5095419;28;20068;-68
2022/08/31 08:37:13;;;;;;;2.75;0.90;;;;;;;20.85;53.92;102472.88;5094862;28;20376;-69
2022/08/31 08:39:39;;;;;;;2.65;0.70;;;;;;;20.93;53.09;102470.19;5094843;28;20031;-69
2022/08/31 08:42:10;;;;;;;2.30;0.85;;;;;;;20.89;50.58;102468.81;5094623;28;20028;-68
2022/08/31 08:44:36;;;;;;;1.67;0.90;;;;;;;20.85;52.18;102472.88;5077387;28;20485;-68
2022/08/31 08:47:05;;;;;;;2.42;0.85;;;;;;;20.73;51.97;102473.19;5094324;28;20036;-69
2022/08/31 08:49:39;;;;;;;2.85;0.77;;;;;;;20.99;53.12;102471.34;5094673;28;20031;-68
2022/08/31 08:52:13;;;;;;;11.80;1.10;;;;;;;21.20;50.70;102470.84;5094600;28;20027;-68
2022/08/31 08:54:45;;;;;;;6.50;1.10;;;;;;;21.73;51.10;102474.00;5094547;28;20063;-68
2022/08/31 08:57:15;;;;;;;0.82;0.80;;;;;;;22.24;49.71;102465.50;5076202;28;20428;-68
2022/08/31 08:59:45;;;;;;;3.40;0.80;;;;;;;23.13;48.36;102465.13;5076123;28;20111;-68
2022/08/31 09:02:19;;;;;;;4.63;1.00;;;;;;;24.00;45.19;102463.72;5094107;28;20024;-68
2022/08/31 09:05:14;;;;;;;3.63;0.98;;;;;;;24.92;42.67;102475.84;5094417;28;20020;-68
2022/08/31 09:07:58;;;;;;;0.90;0.80;;;;;;;25.67;39.55;102477.06;5075750;28;20040;-68
2022/08/31 09:10:50;;;;;;;6.07;1.00;;;;;;;26.08;38.85;102480.88;5094573;28;20111;-69
2022/08/31 09:13:15;;;;;;;2.33;1.00;;;;;;;27.62;36.98;102472.91;5094482;28;20080;-68
2022/08/31 09:16:03;;;;;;;4.65;1.13;;;;;;;28.43;34.71;102476.16;5093943;28;20028;-68
2022/08/31 09:18:52;;;;;;;0.80;0.80;;;;;;;29.11;34.60;102474.63;5094208;28;20052;-68
2022/08/31 09:21:24;;;;;;;1.08;0.93;;;;;;;28.96;32.18;102473.09;5094187;28;20078;-68
2022/08/31 09:24:07;;;;;;;3.70;1.00;;;;;;;29.29;32.30;102477.47;5094672;28;20394;-68
2022/08/31 09:26:46;;;;;;;4.10;1.08;;;;;;;27.82;34.60;102481.03;5093876;28;20031;-68
2022/08/31 09:29:30;;;;;;;3.15;1.00;;;;;;;28.44;33.26;102472.34;5093832;28;20044;-69
2022/08/31 09:32:08;;;;;;;2.72;1.40;;;;;;;28.75;33.45;102471.53;5093664;28;20028;-68
2022/08/31 09:34:38;;;;;;;5.55;1.08;;;;;;;28.96;33.44;102472.22;5093727;28;20059;-68
2022/08/31 09:37:18;;;;;;;4.43;1.30;;;;;;;29.19;32.02;102474.34;5093873;28;20034;-68
2022/08/31 09:39:46;;;;;;;1.13;0.90;;;;;;;28.69;32.68;102474.34;5093876;28;20024;-68
2022/08/31 09:42:27;;;;;;;4.60;0.93;;;;;;;28.95;33.06;102468.66;5093243;28;20028;-68
2022/08/31 09:44:54;;;;;;;1.38;1.00;;;;;;;29.08;33.00;102472.34;5093293;28;20487;-68
2022/08/31 09:47:54;;;;;;;3.47;1.05;;;;;;;28.87;32.13;102466.19;5093514;28;20478;-68
2022/08/31 09:50:40;;;;;;;2.03;0.82;;;;;;;29.28;31.60;102464.81;5093715;28;20122;-69
2022/08/31 09:56:04;;;;;;;7.15;1.17;;;;;;;28.75;31.27;102467.97;5093800;28;20089;-68
2022/08/31 09:58:32;;;;;;;5.82;1.05;;;;;;;29.01;33.11;102467.75;5093913;28;20028;-68
2022/08/31 10:01:11;;;;;;;1.25;1.00;;;;;;;29.56;31.40;102460.75;5093918;28;20036;-68
2022/08/31 10:03:43;;;;;;;4.05;1.00;;;;;;;29.77;32.04;102461.31;5093500;28;20024;-68
2022/08/31 10:06:24;;;;;;;3.72;1.27;;;;;;;29.87;30.92;102456.16;5094203;28;20034;-68
2022/08/31 10:08:58;;;;;;;3.67;1.02;;;;;;;29.34;31.42;102458.41;5093657;28;20024;-68
2022/08/31 10:11:28;;;;;;;1.17;1.08;;;;;;;29.26;32.08;102455.13;5092954;28;20034;-69
2022/08/31 10:14:03;;;;;;;3.40;1.13;;;;;;;29.71;31.50;102449.38;5093619;28;20096;-68
2022/08/31 10:16:37;;;;;;;1.27;1.15;;;;;;;29.66;31.01;102449.22;5093265;28;20513;-68
2022/08/31 10:19:14;;;;;;;2.55;1.15;;;;;;;30.40;30.90;102446.38;5093386;28;20164;-69
2022/08/31 10:21:40;;;;;;;1.48;1.13;;;;;;;30.37;31.40;102446.88;5093458;28;20020;-68
2022/08/31 10:24:31;;;;;;;4.75;1.20;;;;;;;30.09;30.63;102442.81;5093073;28;20032;-69
2022/08/31 10:27:20;;;;;;;3.13;1.10;;;;;;;30.19;31.24;102442.25;5093511;28;20055;-69
2022/08/31 10:29:58;;;;;;;1.95;1.25;;;;;;;30.52;30.13;102441.78;5093671;28;20020;-69
2022/08/31 10:32:42;;;;;;;3.42;1.05;;;;;;;30.21;31.26;102438.19;5093142;28;20032;-69
2022/08/31 10:35:27;;;;;;;2.70;1.20;;;;;;;30.01;30.91;102441.22;5092806;28;20411;-70
2022/08/31 10:38:17;;;;;;;1.80;1.30;;;;;;;30.30;31.03;102437.88;5093125;28;20032;-70
2022/08/31 10:40:49;;;;;;;4.50;1.10;;;;;;;29.87;30.68;102428.75;5092877;28;20028;-69
2022/08/31 10:43:22;;;;;;;1.35;0.95;;;;;;;30.43;31.65;102426.72;5093383;28;20081;-69
2022/08/31 10:45:51;;;;;;;8.05;1.05;;;;;;;30.72;31.13;102422.25;5093249;28;20047;-69
2022/08/31 10:48:20;;;;;;;3.03;0.93;;;;;;;31.08;30.48;102420.41;5093532;28;20066;-69
2022/08/31 10:50:58;;;;;;;3.45;1.10;;;;;;;30.46;30.66;102420.78;5075621;28;20372;-69
2022/08/31 10:54:06;;;;;;;3.13;1.20;;;;;;;29.73;30.43;102419.81;5094387;28;20024;-69
2022/08/31 10:56:57;;;;;;;2.03;1.10;;;;;;;29.27;32.32;102423.94;5082123;28;20040;-68
2022/08/31 10:59:52;;;;;;;2.75;1.23;;;;;;;29.49;31.35;102424.31;5096699;28;20028;-69
2022/08/31 11:02:51;;;;;;;2.72;1.23;;;;;;;28.86;32.28;102426.19;5096609;28;20105;-69
2022/08/31 11:05:28;;;;;;;4.57;1.40;;;;;;;29.59;31.60;102423.78;5071471;28;20474;-69
2022/08/31 11:08:11;;;;;;;3.65;1.40;;;;;;;29.60;31.29;102430.94;5096979;28;20066;-69
2022/08/31 11:10:51;;;;;;;5.63;1.20;;;;;;;29.10;31.87;102427.22;5096806;28;20032;-68
2022/08/31 11:13:19;;;;;;;;;;;;;;;29.26;32.82;102428.59;5097397;28;20034;-69
2022/08/31 11:15:50;;;;;;;4.00;1.10;;;;;;;29.50;33.26;102428.72;5096501;28;19908;-68
2022/08/31 11:18:49;;;;;;;12.05;1.52;;;;;;;29.83;33.10;102439.34;5096283;28;20048;-68
2022/08/31 11:21:25;;;;;;;4.50;1.20;;;;;;;27.95;33.31;102428.19;5096149;28;20090;-69
2022/08/31 11:24:16;;;;;;;4.88;1.20;;;;;;;28.60;34.42;102428.03;5095941;28;20353;-69
2022/08/31 11:26:45;;;;;;;7.85;1.30;;;;;;;28.84;33.10;102434.63;5078017;28;20031;-68
2022/08/31 11:29:42;;;;;;;7.03;1.30;;;;;;;28.74;32.53;102426.06;5096205;28;20024;-69
2022/08/31 11:32:16;;;;;;;4.63;1.35;;;;;;;28.43;33.56;102419.50;5096147;28;20085;-69
2022/08/31 11:34:52;;;;;;;4.38;1.38;;;;;;;29.29;33.37;102427.28;5078184;28;20069;-69
2022/08/31 11:37:51;;;;;;;2.83;1.48;;;;;;;29.52;32.92;102419.22;5096106;28;20024;-69
2022/08/31 11:40:40;;;;;;;2.35;1.25;;;;;;;29.21;31.77;102417.44;5096526;28;20024;-69
2022/08/31 11:43:07;;;;;;;3.58;1.40;;;;;;;29.61;32.82;102403.28;5095893;28;20081;-69
2022/08/31 11:45:36;;;;;;;8.75;1.40;;;;;;;29.56;32.09;102408.66;5095868;28;20030;-69